Time;durP1;ratioP1;P1;durP2;ratioP2;P2;SDS_P1;SDS_P2;PMS_P1;PMS_P2;Temp;Humidity;BMP_temperature;BMP_pressure;BME280_temperature;BME280_humidity;BME280_pressure;Samples;Min_cycle;Max_cycle;Signal;HPM_P1;HPM_P2
2023/03/15 00:01:37;;;;;;;21.47;3.73;;;4.10;99.90;;;;;;5093604;28;20036;-47
2023/03/15 00:04:06;;;;;;;15.23;3.20;;;4.20;99.90;;;;;;5093175;28;20086;-48
2023/03/15 00:06:33;;;;;;;11.07;3.17;;;4.20;99.90;;;;;;5093262;28;20510;-53
2023/03/15 00:09:03;;;;;;;14.60;3.60;;;4.10;99.90;;;;;;5075154;28;20032;-48
2023/03/15 00:11:29;;;;;;;12.30;2.67;;;4.10;99.90;;;;;;5093568;28;20085;-48
2023/03/15 00:14:01;;;;;;;17.97;3.10;;;4.00;99.90;;;;;;5093145;28;20036;-51
2023/03/15 00:16:26;;;;;;;12.50;3.13;;;4.10;99.90;;;;;;5093003;28;20416;-52
2023/03/15 00:18:53;;;;;;;13.57;3.23;;;4.10;99.90;;;;;;5093051;28;20035;-49
2023/03/15 00:21:19;;;;;;;12.50;3.30;;;4.10;99.90;;;;;;5093194;28;20498;-49
2023/03/15 00:23:45;;;;;;;9.57;2.80;;;4.00;99.90;;;;;;5096373;22;20507;-53
2023/03/15 00:26:12;;;;;;;8.83;2.47;;;4.00;99.90;;;;;;5073105;28;20036;-53
2023/03/15 00:28:38;;;;;;;11.80;2.80;;;4.00;99.90;;;;;;5072514;28;20028;-53
2023/03/15 00:31:24;;;;;;;10.63;3.50;;;4.00;99.90;;;;;;5071889;28;20036;-51
2023/03/15 00:33:54;;;;;;;11.33;3.40;;;3.90;99.90;;;;;;5072473;28;20028;-50
2023/03/15 00:36:23;;;;;;;13.00;3.90;;;3.90;99.90;;;;;;5054529;28;20036;-54
2023/03/15 00:38:52;;;;;;;12.13;4.20;;;3.80;99.90;;;;;;5054600;28;20086;-51
2023/03/15 00:41:19;;;;;;;10.67;4.50;;;3.70;99.90;;;;;;5072555;28;20025;-53
2023/03/15 00:43:45;;;;;;;11.30;4.37;;;3.60;99.90;;;;;;5072106;28;20485;-51
2023/03/15 00:46:12;;;;;;;10.10;3.63;;;3.40;99.90;;;;;;5054495;28;20524;-50
2023/03/15 00:48:38;;;;;;;10.30;3.67;;;3.30;99.90;;;;;;5054331;28;20087;-51
2023/03/15 00:51:06;;;;;;;8.53;3.67;;;3.30;99.90;;;;;;5054422;28;20523;-49
2023/03/15 00:53:35;;;;;;;10.67;4.00;;;3.10;99.90;;;;;;5054112;28;20115;-50
2023/03/15 00:56:06;;;;;;;9.75;4.20;;;2.80;99.90;;;;;;5072411;28;20059;-50
2023/03/15 00:58:32;;;;;;;8.97;3.90;;;2.60;99.90;;;;;;5071863;28;20033;-52
2023/03/15 01:00:58;;;;;;;9.70;4.63;;;2.50;99.90;;;;;;5072164;28;20154;-53
2023/03/15 01:03:24;;;;;;;11.70;3.97;;;2.30;99.90;;;;;;5053911;28;20036;-50
2023/03/15 01:05:49;;;;;;;8.57;4.07;;;2.20;99.90;;;;;;5072155;28;20053;-53
2023/03/15 01:08:16;;;;;;;10.13;4.43;;;2.20;99.90;;;;;;5054046;28;20501;-52
2023/03/15 01:10:41;;;;;;;9.07;4.60;;;2.10;99.90;;;;;;5071921;28;20035;-54
2023/03/15 01:13:07;;;;;;;9.20;4.83;;;2.10;99.90;;;;;;5053858;28;20028;-52
2023/03/15 01:15:33;;;;;;;12.00;5.30;;;2.00;99.90;;;;;;5053712;28;20598;-52
2023/03/15 01:17:59;;;;;;;10.47;5.07;;;2.00;99.90;;;;;;5071663;28;20500;-54
2023/03/15 01:20:25;;;;;;;11.03;5.37;;;2.00;99.90;;;;;;5053729;28;20138;-51
2023/03/15 01:22:51;;;;;;;10.27;5.67;;;2.00;99.90;;;;;;5053611;28;20119;-52
2023/03/15 01:25:17;;;;;;;9.83;5.10;;;2.10;99.90;;;;;;5071507;28;20182;-52
2023/03/15 01:27:44;;;;;;;11.97;5.20;;;2.00;99.90;;;;;;5053350;28;20036;-53
2023/03/15 01:30:10;;;;;;;9.23;4.90;;;2.10;99.90;;;;;;5071739;28;20028;-51
2023/03/15 01:32:36;;;;;;;7.93;4.23;;;2.10;99.90;;;;;;5053556;28;20035;-51
2023/03/15 01:35:01;;;;;;;7.37;4.00;;;2.10;99.90;;;;;;5053456;28;20024;-54
2023/03/15 01:37:27;;;;;;;10.77;4.53;;;2.20;99.90;;;;;;5071207;28;20058;-50
2023/03/15 01:39:53;;;;;;;7.33;3.20;;;2.20;99.90;;;;;;5053383;28;20039;-51
2023/03/15 01:42:19;;;;;;;5.20;3.07;;;2.30;99.90;;;;;;5053214;28;20067;-50
2023/03/15 01:44:55;;;;;;;7.23;3.27;;;2.30;99.90;;;;;;5052937;28;20034;-50
2023/03/15 01:47:24;;;;;;;6.53;3.30;;;2.30;99.90;;;;;;5071389;28;20044;-50
2023/03/15 01:50:00;;;;;;;5.70;2.63;;;2.30;99.90;;;;;;5053181;28;20027;-52
2023/03/15 01:52:32;;;;;;;6.70;2.50;;;2.20;99.90;;;;;;5071154;28;20029;-51
2023/03/15 01:55:10;;;;;;;6.27;2.30;;;2.20;99.90;;;;;;5053027;28;20093;-52
2023/03/15 01:57:55;;;;;;;6.50;2.60;;;2.20;99.90;;;;;;5053015;28;20055;-51
2023/03/15 02:00:22;;;;;;;5.17;2.30;;;2.20;99.90;;;;;;5053044;28;20039;-50
2023/03/15 02:03:13;;;;;;;6.80;2.67;;;2.20;99.90;;;;;;5053149;28;20029;-54
2023/03/15 02:05:46;;;;;;;4.90;1.97;;;2.20;99.90;;;;;;5052764;28;20029;-53
2023/03/15 02:08:27;;;;;;;4.40;2.00;;;2.20;99.90;;;;;;5052746;28;20549;-52
2023/03/15 02:10:57;;;;;;;3.70;1.97;;;2.20;99.90;;;;;;5052877;28;20039;-51
2023/03/15 02:13:25;;;;;;;4.50;2.03;;;2.20;99.90;;;;;;5052459;28;20064;-54
2023/03/15 02:15:54;;;;;;;4.57;2.30;;;2.20;99.90;;;;;;5052880;28;20242;-52
2023/03/15 02:18:26;;;;;;;8.40;2.40;;;2.20;99.90;;;;;;5052739;28;20374;-53
2023/03/15 02:21:03;;;;;;;5.80;2.60;;;2.30;99.90;;;;;;5070673;28;20073;-52
2023/03/15 02:23:30;;;;;;;6.90;3.10;;;2.30;99.90;;;;;;5052311;28;20032;-50
2023/03/15 02:25:59;;;;;;;6.27;3.20;;;2.40;99.90;;;;;;5052616;28;20028;-51
2023/03/15 02:28:27;;;;;;;6.70;3.57;;;2.40;99.90;;;;;;5052558;28;20103;-52
2023/03/15 02:30:53;;;;;;;8.47;3.87;;;2.40;99.90;;;;;;5070715;28;20039;-54
2023/03/15 02:33:32;;;;;;;12.07;4.70;;;2.40;99.90;;;;;;5070520;28;20104;-50
2023/03/15 02:36:20;;;;;;;27.43;9.90;;;2.40;99.90;;;;;;5052749;28;20389;-53
2023/03/15 02:38:46;;;;;;;35.30;11.07;;;2.40;99.90;;;;;;5052414;28;20025;-52
2023/03/15 02:41:15;;;;;;;32.07;12.13;;;2.40;99.90;;;;;;5052561;28;20497;-50
2023/03/15 02:43:42;;;;;;;44.88;14.93;;;2.40;99.90;;;;;;5070048;28;20028;-52
2023/03/15 02:46:09;;;;;;;37.23;14.17;;;2.40;99.90;;;;;;5070406;28;20095;-52
2023/03/15 02:48:36;;;;;;;34.03;14.03;;;2.50;99.90;;;;;;5052282;28;20099;-53
2023/03/15 02:51:02;;;;;;;32.80;12.87;;;2.50;99.90;;;;;;5052324;28;20059;-51
2023/03/15 02:53:29;;;;;;;27.50;13.13;;;2.50;99.90;;;;;;5052265;28;20028;-50
2023/03/15 02:55:57;;;;;;;27.83;13.50;;;2.50;99.90;;;;;;5074384;28;20016;-54
2023/03/15 02:58:23;;;;;;;22.83;12.60;;;2.40;99.90;;;;;;5056439;28;20025;-55
2023/03/15 03:00:51;;;;;;;27.03;13.67;;;2.40;99.90;;;;;;5056234;28;20025;-53
2023/03/15 03:03:17;;;;;;;28.58;12.40;;;2.30;99.90;;;;;;5056332;28;20024;-49
2023/03/15 03:05:43;;;;;;;16.50;8.47;;;2.20;99.90;;;;;;5074148;28;20043;-52
2023/03/15 03:08:09;;;;;;;12.63;7.23;;;2.00;99.90;;;;;;5074325;28;20020;-51
2023/03/15 03:10:35;;;;;;;11.83;7.07;;;1.80;99.90;;;;;;5056247;28;20058;-54
2023/03/15 03:13:01;;;;;;;11.57;7.37;;;1.60;99.90;;;;;;5055991;28;20123;-53
2023/03/15 03:15:33;;;;;;;14.97;7.93;;;1.50;99.90;;;;;;5056056;28;20033;-51
2023/03/15 03:17:58;;;;;;;16.13;8.53;;;1.30;99.90;;;;;;5055811;28;20039;-52
2023/03/15 03:20:26;;;;;;;11.90;6.23;;;1.20;99.90;;;;;;5073975;28;20116;-52
2023/03/15 03:22:54;;;;;;;13.20;5.70;;;1.10;99.90;;;;;;5055751;28;20040;-55
2023/03/15 03:25:20;;;;;;;13.68;4.82;;;1.00;99.90;;;;;;5073701;28;20028;-50
2023/03/15 03:27:47;;;;;;;8.23;3.03;;;1.10;99.90;;;;;;5055740;28;20439;-50
2023/03/15 03:30:13;;;;;;;7.27;2.90;;;1.10;99.90;;;;;;5055907;28;20131;-51
2023/03/15 03:32:44;;;;;;;7.03;2.87;;;1.20;99.90;;;;;;5055674;28;20032;-54
2023/03/15 03:35:11;;;;;;;6.70;2.33;;;1.20;99.90;;;;;;5055638;28;20017;-49
2023/03/15 03:37:38;;;;;;;6.23;2.57;;;1.30;99.90;;;;;;5055562;28;20029;-50
2023/03/15 03:40:12;;;;;;;8.53;3.13;;;1.30;99.90;;;;;;5055765;28;20031;-52
2023/03/15 03:42:38;;;;;;;8.33;3.30;;;1.40;99.90;;;;;;5055515;28;20039;-55
2023/03/15 03:45:06;;;;;;;10.33;4.23;;;1.40;99.90;;;;;;5055126;28;20507;-50
2023/03/15 03:47:36;;;;;;;8.20;4.20;;;1.50;99.90;;;;;;5055380;28;20097;-54
2023/03/15 03:50:02;;;;;;;8.73;4.30;;;1.50;99.90;;;;;;5055479;28;20020;-55
2023/03/15 03:52:28;;;;;;;9.83;4.87;;;1.50;99.90;;;;;;5055402;28;20095;-55
2023/03/15 03:55:02;;;;;;;10.20;5.10;;;1.50;99.90;;;;;;5055264;28;20127;-53
2023/03/15 03:57:28;;;;;;;8.87;5.43;;;1.50;99.90;;;;;;5055340;28;20032;-50
2023/03/15 03:59:54;;;;;;;8.63;5.10;;;1.50;99.90;;;;;;5073184;28;20041;-55
2023/03/15 04:02:20;;;;;;;10.10;5.20;;;1.50;99.90;;;;;;5055243;28;20077;-55
2023/03/15 04:04:55;;;;;;;8.43;4.67;;;1.50;99.90;;;;;;5054303;28;20025;-53
2023/03/15 04:07:21;;;;;;;8.13;4.90;;;1.60;99.90;;;;;;5054251;28;20020;-53
2023/03/15 04:09:47;;;;;;;9.27;4.70;;;1.60;99.90;;;;;;5055077;28;20025;-54
2023/03/15 04:12:13;;;;;;;7.83;4.70;;;1.60;99.90;;;;;;5054925;28;20035;-53
2023/03/15 04:14:41;;;;;;;9.87;5.23;;;1.60;99.90;;;;;;5054853;28;20039;-54
2023/03/15 04:17:09;;;;;;;10.03;5.17;;;1.60;99.90;;;;;;5054878;28;20113;-52
2023/03/15 04:19:35;;;;;;;9.57;5.20;;;1.60;99.90;;;;;;5055297;28;20032;-54
2023/03/15 04:22:05;;;;;;;11.20;5.73;;;1.60;99.90;;;;;;5038489;28;20533;-50
2023/03/15 04:24:44;;;;;;;12.23;6.10;;;1.60;99.90;;;;;;5072333;28;20131;-52
2023/03/15 04:27:29;;;;;;;10.37;5.93;;;1.60;99.90;;;;;;5072610;28;20093;-53
2023/03/15 04:30:04;;;;;;;11.80;6.30;;;1.70;99.90;;;;;;5054709;28;20035;-52
2023/03/15 04:32:58;;;;;;;13.53;7.03;;;1.60;99.90;;;;;;5045867;28;20501;-54
2023/03/15 04:35:41;;;;;;;14.20;7.10;;;1.70;99.90;;;;;;5072931;28;20028;-51
2023/03/15 04:38:25;;;;;;;14.87;7.37;;;1.70;99.90;;;;;;5054519;28;20029;-54
2023/03/15 04:41:10;;;;;;;15.97;7.80;;;1.80;99.90;;;;;;5072502;28;20052;-53
2023/03/15 04:43:54;;;;;;;13.20;7.77;;;1.70;99.90;;;;;;5072403;28;20086;-52
2023/03/15 04:46:34;;;;;;;15.57;8.03;;;1.70;99.90;;;;;;5054324;28;20043;-53
2023/03/15 04:49:26;;;;;;;15.43;8.27;;;1.70;99.90;;;;;;5054404;28;20025;-52
2023/03/15 04:52:11;;;;;;;14.40;8.40;;;1.80;99.90;;;;;;5072412;28;20056;-55
2023/03/15 04:54:47;;;;;;;15.50;8.60;;;1.70;99.90;;;;;;5054068;28;20085;-53
2023/03/15 04:57:28;;;;;;;15.97;8.27;;;1.80;99.90;;;;;;5072162;28;20082;-53
2023/03/15 05:00:23;;;;;;;14.77;8.63;;;1.80;99.90;;;;;;5062811;28;20033;-49
2023/03/15 05:03:07;;;;;;;17.03;8.80;;;1.80;99.90;;;;;;5072330;28;20090;-53
2023/03/15 05:05:55;;;;;;;16.83;9.10;;;1.90;99.90;;;;;;5054039;28;20115;-55
2023/03/15 05:08:36;;;;;;;18.33;9.67;;;1.90;99.90;;;;;;5053716;28;20028;-54
2023/03/15 05:11:11;;;;;;;17.83;9.97;;;1.90;99.90;;;;;;5071863;28;20031;-55
2023/03/15 05:13:46;;;;;;;20.40;10.67;;;1.90;99.90;;;;;;5071744;28;20025;-53
2023/03/15 05:16:23;;;;;;;20.70;11.47;;;1.90;99.90;;;;;;5053620;28;20086;-52
2023/03/15 05:18:59;;;;;;;20.33;11.17;;;1.90;99.90;;;;;;5071690;28;20055;-53
2023/03/15 05:21:38;;;;;;;21.38;11.35;;;1.90;99.90;;;;;;5053910;28;20089;-54
2023/03/15 05:24:22;;;;;;;20.27;11.67;;;2.00;99.90;;;;;;5071225;28;20093;-56
2023/03/15 05:27:14;;;;;;;23.17;12.30;;;2.00;99.90;;;;;;5047130;28;20036;-54
2023/03/15 05:29:47;;;;;;;22.53;12.40;;;2.00;99.90;;;;;;5053601;28;20104;-52
2023/03/15 05:32:25;;;;;;;22.80;12.73;;;2.00;99.90;;;;;;5053464;28;20024;-51
2023/03/15 05:35:12;;;;;;;26.13;14.20;;;1.90;99.90;;;;;;5070936;28;20036;-51
2023/03/15 05:37:47;;;;;;;26.70;13.53;;;1.80;99.90;;;;;;5053311;28;20123;-53
2023/03/15 05:40:48;;;;;;;24.27;13.30;;;1.80;99.90;;;;;;5028937;28;20497;-54
2023/03/15 05:43:28;;;;;;;27.27;13.73;;;1.80;99.90;;;;;;5048621;28;20032;-53
2023/03/15 05:46:11;;;;;;;27.23;14.67;;;1.80;99.90;;;;;;5053314;28;20039;-52
2023/03/15 05:48:55;;;;;;;28.93;15.03;;;1.90;99.90;;;;;;5039117;28;20028;-54
2023/03/15 05:51:40;;;;;;;30.43;14.70;;;1.90;99.90;;;;;;5071212;28;20093;-55
2023/03/15 05:54:19;;;;;;;30.65;15.85;;;1.90;99.90;;;;;;5052802;28;20063;-54
2023/03/15 05:56:47;;;;;;;28.20;15.27;;;2.00;99.90;;;;;;5071247;28;20036;-54
2023/03/15 05:59:19;;;;;;;28.00;14.67;;;1.90;99.90;;;;;;5071125;28;20093;-51
2023/03/15 06:02:03;;;;;;;28.60;15.80;;;2.00;99.90;;;;;;5055779;28;20378;-55
2023/03/15 06:04:36;;;;;;;30.83;15.77;;;2.00;99.90;;;;;;5052557;28;20473;-54
2023/03/15 06:07:04;;;;;;;32.77;16.07;;;2.00;99.90;;;;;;5052703;28;20085;-52
2023/03/15 06:09:32;;;;;;;30.23;16.10;;;2.00;99.90;;;;;;5052767;28;20028;-53
2023/03/15 06:11:58;;;;;;;31.50;17.00;;;2.10;99.90;;;;;;5052829;28;20025;-51
2023/03/15 06:14:27;;;;;;;29.43;15.87;;;2.10;99.90;;;;;;5052651;28;20036;-51
2023/03/15 06:16:56;;;;;;;29.33;16.23;;;2.10;99.90;;;;;;5052712;28;20033;-51
2023/03/15 06:19:24;;;;;;;32.13;16.17;;;2.10;99.90;;;;;;5052580;28;20036;-51
2023/03/15 06:21:53;;;;;;;34.58;15.98;;;2.20;99.90;;;;;;5052682;28;20021;-54
2023/03/15 06:24:24;;;;;;;27.47;15.10;;;2.30;99.90;;;;;;5052062;28;20029;-51
2023/03/15 06:26:50;;;;;;;30.83;16.27;;;2.30;99.90;;;;;;5052426;28;20043;-55
2023/03/15 06:29:16;;;;;;;27.50;14.93;;;2.20;99.90;;;;;;5051869;28;20051;-53
2023/03/15 06:31:46;;;;;;;31.58;15.43;;;2.20;99.90;;;;;;5052536;28;20035;-53
2023/03/15 06:34:12;;;;;;;33.60;16.77;;;2.30;99.90;;;;;;5052187;28;20090;-54
2023/03/15 06:36:38;;;;;;;28.23;15.50;;;2.30;99.90;;;;;;5052307;28;20489;-52
2023/03/15 06:39:05;;;;;;;30.80;15.67;;;2.30;99.90;;;;;;5052382;28;20035;-54
2023/03/15 06:41:31;;;;;;;30.87;15.67;;;2.30;99.90;;;;;;5070461;28;20032;-53
2023/03/15 06:44:04;;;;;;;29.37;15.37;;;2.40;99.90;;;;;;5052058;28;20028;-54
2023/03/15 06:46:30;;;;;;;29.73;14.67;;;2.40;99.90;;;;;;5052238;28;20029;-54
2023/03/15 06:48:56;;;;;;;32.00;16.33;;;2.40;99.90;;;;;;5052375;28;20551;-53
2023/03/15 06:51:22;;;;;;;36.10;17.13;;;2.50;99.90;;;;;;5052356;28;20033;-55
2023/03/15 06:53:48;;;;;;;30.57;15.97;;;2.50;99.90;;;;;;5051946;28;20051;-54
2023/03/15 06:56:14;;;;;;;32.13;16.47;;;2.50;99.90;;;;;;5052323;28;20040;-53
2023/03/15 06:58:40;;;;;;;31.67;15.87;;;2.60;99.90;;;;;;5070155;28;20020;-53
2023/03/15 07:01:05;;;;;;;31.37;15.90;;;2.50;99.90;;;;;;5070147;28;20054;-54
2023/03/15 07:03:31;;;;;;;31.77;16.07;;;2.60;99.90;;;;;;5070100;28;20025;-55
2023/03/15 07:05:57;;;;;;;32.27;14.60;;;2.60;99.90;;;;;;5070174;28;20043;-53
2023/03/15 07:08:24;;;;;;;27.70;14.03;;;2.60;99.90;;;;;;5070095;28;20107;-52
2023/03/15 07:10:50;;;;;;;29.53;14.37;;;2.60;99.90;;;;;;5070135;28;20025;-54
2023/03/15 07:13:18;;;;;;;25.43;13.13;;;2.60;99.90;;;;;;5070021;28;20389;-52
2023/03/15 07:15:43;;;;;;;26.27;12.87;;;2.70;99.90;;;;;;5070045;28;20040;-53
2023/03/15 07:18:09;;;;;;;28.77;12.37;;;2.70;99.90;;;;;;5070051;28;20108;-54
2023/03/15 07:20:35;;;;;;;25.30;12.37;;;2.70;99.90;;;;;;5070346;28;20396;-53
2023/03/15 07:23:01;;;;;;;25.17;12.37;;;2.80;99.90;;;;;;5070138;28;20078;-52
2023/03/15 07:25:27;;;;;;;25.90;13.00;;;2.80;99.90;;;;;;5069870;28;20033;-55
2023/03/15 07:27:53;;;;;;;27.70;12.57;;;2.90;99.90;;;;;;5069916;28;20099;-55
2023/03/15 07:30:19;;;;;;;25.33;11.33;;;2.80;99.90;;;;;;5069909;28;20116;-49
2023/03/15 07:32:46;;;;;;;21.37;11.30;;;2.80;99.90;;;;;;5070156;28;20048;-52
2023/03/15 07:35:12;;;;;;;25.93;11.37;;;2.90;99.90;;;;;;5069797;28;20032;-55
2023/03/15 07:37:38;;;;;;;21.77;11.03;;;2.90;99.90;;;;;;5069996;28;20465;-54
2023/03/15 07:40:08;;;;;;;21.07;10.83;;;3.00;99.90;;;;;;5070923;28;20392;-53
2023/03/15 07:42:38;;;;;;;20.50;10.93;;;3.20;99.90;;;;;;5073625;28;20044;-52
2023/03/15 07:45:06;;;;;;;22.90;11.07;;;3.20;99.90;;;;;;5055421;28;20567;-54
2023/03/15 07:47:32;;;;;;;20.83;10.13;;;3.40;99.90;;;;;;5073453;28;20058;-50
2023/03/15 07:49:58;;;;;;;24.53;12.03;;;3.40;99.90;;;;;;5073526;28;20064;-51
2023/03/15 07:52:24;;;;;;;25.50;12.27;;;3.40;99.90;;;;;;5073185;28;20522;-49
2023/03/15 07:54:50;;;;;;;24.90;11.70;;;3.50;99.90;;;;;;5073238;28;20509;-50
2023/03/15 07:57:16;;;;;;;23.17;11.47;;;3.60;99.90;;;;;;5072839;28;20060;-51
2023/03/15 07:59:42;;;;;;;23.23;13.83;;;3.90;99.90;;;;;;5073159;28;20067;-49
2023/03/15 08:02:12;;;;;;;30.10;14.17;;;4.30;99.90;;;;;;5073084;28;20063;-52
2023/03/15 08:04:37;;;;;;;26.17;14.20;;;4.30;99.90;;;;;;5072758;28;20032;-52
2023/03/15 08:07:03;;;;;;;26.93;13.50;;;4.50;99.90;;;;;;5073045;28;20025;-50
2023/03/15 08:09:31;;;;;;;25.47;13.23;;;4.60;99.90;;;;;;5072932;28;20029;-50
2023/03/15 08:11:57;;;;;;;26.40;12.77;;;4.70;99.90;;;;;;5072966;28;20032;-50
2023/03/15 08:14:23;;;;;;;27.13;13.13;;;4.60;99.90;;;;;;5072918;28;20032;-49
2023/03/15 08:16:49;;;;;;;25.37;11.97;;;4.50;99.90;;;;;;5072928;28;20400;-55
2023/03/15 08:19:15;;;;;;;29.27;14.33;;;4.40;99.90;;;;;;5072665;28;20035;-52
2023/03/15 08:21:44;;;;;;;33.10;16.03;;;4.50;99.90;;;;;;5072898;28;20025;-50
2023/03/15 08:24:10;;;;;;;30.37;14.53;;;4.70;99.90;;;;;;5072315;28;20051;-51
2023/03/15 08:26:36;;;;;;;25.73;13.80;;;4.90;99.90;;;;;;5072653;28;20988;-49
2023/03/15 08:29:02;;;;;;;27.80;14.17;;;5.00;99.90;;;;;;5072786;28;20024;-49
2023/03/15 08:31:28;;;;;;;24.93;13.00;;;5.20;99.90;;;;;;5072846;28;20431;-52
2023/03/15 08:33:54;;;;;;;22.90;14.17;;;5.20;99.90;;;;;;5072739;28;20033;-51
2023/03/15 08:36:20;;;;;;;33.00;14.93;;;5.50;99.90;;;;;;5054423;28;20082;-54
2023/03/15 08:38:45;;;;;;;31.10;14.60;;;5.70;99.90;;;;;;5072508;28;20024;-50
2023/03/15 08:41:11;;;;;;;28.50;15.30;;;5.70;99.90;;;;;;5054560;28;20043;-50
2023/03/15 08:43:37;;;;;;;31.87;15.20;;;6.00;99.90;;;;;;5072411;28;20035;-52
2023/03/15 08:46:02;;;;;;;30.03;13.47;;;6.40;99.90;;;;;;5072487;28;20067;-50
2023/03/15 08:48:28;;;;;;;26.03;13.13;;;6.60;99.90;;;;;;5072363;28;20051;-51
2023/03/15 08:50:55;;;;;;;24.87;13.40;;;6.80;99.90;;;;;;5072335;28;20492;-50
2023/03/15 08:53:21;;;;;;;26.17;13.70;;;6.90;99.90;;;;;;5071497;28;20028;-52
2023/03/15 08:55:48;;;;;;;25.00;13.03;;;7.10;99.90;;;;;;5072696;28;20035;-51
2023/03/15 08:58:14;;;;;;;21.63;12.20;;;6.50;99.90;;;;;;5072531;28;20488;-50
2023/03/15 09:00:39;;;;;;;15.13;8.77;;;6.40;99.90;;;;;;5072519;28;20032;-52
2023/03/15 09:03:05;;;;;;;17.53;9.77;;;6.20;99.90;;;;;;5072235;28;20040;-55
2023/03/15 09:05:31;;;;;;;19.07;10.70;;;6.20;99.90;;;;;;5072011;28;20035;-50
2023/03/15 09:07:57;;;;;;;24.43;11.57;;;6.30;99.90;;;;;;5071895;28;20508;-54
2023/03/15 09:10:23;;;;;;;20.93;8.53;;;6.40;99.90;;;;;;5071977;28;20051;-49
2023/03/15 09:12:52;;;;;;;27.23;11.13;;;6.50;99.90;;;;;;5072014;28;20694;-49
2023/03/15 09:15:18;;;;;;;21.92;10.25;;;6.50;99.90;;;;;;5071824;28;20119;-51
2023/03/15 09:17:44;;;;;;;18.33;8.10;;;6.60;99.90;;;;;;5071593;28;20043;-50
2023/03/15 09:20:17;;;;;;;20.27;9.43;;;6.80;99.90;;;;;;5071701;28;20044;-53
2023/03/15 09:22:48;;;;;;;21.90;9.20;;;7.10;99.90;;;;;;5071411;28;20032;-49
2023/03/15 09:25:14;;;;;;;19.77;9.03;;;7.60;99.90;;;;;;5071287;28;20036;-51
2023/03/15 09:27:39;;;;;;;20.63;9.50;;;8.10;99.90;;;;;;5071402;28;20024;-53
2023/03/15 09:30:06;;;;;;;23.00;9.77;;;7.90;99.90;;;;;;5071506;28;20027;-52
2023/03/15 09:32:35;;;;;;;24.27;10.33;;;7.70;99.90;;;;;;5071334;28;20074;-52
2023/03/15 09:35:05;;;;;;;27.47;10.30;;;7.30;99.90;;;;;;5071004;28;20052;-54
2023/03/15 09:37:31;;;;;;;23.77;9.80;;;7.10;99.90;;;;;;5071137;28;20031;-52
2023/03/15 09:39:56;;;;;;;19.07;8.73;;;6.80;99.90;;;;;;5071574;28;20032;-49
2023/03/15 09:42:33;;;;;;;16.07;8.43;;;6.80;99.90;;;;;;5071359;28;20116;-53
2023/03/15 09:45:56;;;;;;;16.47;7.43;;;6.70;99.90;;;;;;5071059;28;20033;-53
2023/03/15 09:48:34;;;;;;;20.60;8.17;;;7.30;99.90;;;;;;4989448;28;20030;-52
2023/03/15 09:51:17;;;;;;;17.50;8.30;;;8.60;99.90;;;;;;4989685;28;20479;-54
2023/03/15 09:54:00;;;;;;;16.13;8.13;;;9.40;99.90;;;;;;5043469;28;20413;-51
2023/03/15 09:56:35;;;;;;;14.85;7.47;;;10.60;99.90;;;;;;5070825;28;20035;-52
2023/03/15 09:59:02;;;;;;;18.45;7.18;;;11.30;99.90;;;;;;5071066;28;20032;-53
2023/03/15 10:01:36;;;;;;;12.63;6.82;;;12.30;99.90;;;;;;5070829;28;20120;-52
2023/03/15 10:04:09;;;;;;;12.10;6.50;;;11.60;99.90;;;;;;5070479;28;20024;-53
2023/03/15 10:06:37;;;;;;;12.38;7.15;;;10.70;99.90;;;;;;5070641;28;20028;-54
2023/03/15 10:09:10;;;;;;;16.55;6.95;;;9.20;99.90;;;;;;5070848;28;20445;-52
2023/03/15 10:12:03;;;;;;;14.30;7.03;;;8.40;99.90;;;;;;5070874;28;20028;-52
2023/03/15 10:14:54;;;;;;;11.03;5.70;;;7.70;99.90;;;;;;5070481;28;20030;-50
2023/03/15 10:17:34;;;;;;;16.23;5.70;;;7.70;99.90;;;;;;5070474;28;20464;-52
2023/03/15 10:20:10;;;;;;;14.30;6.27;;;7.40;99.90;;;;;;5070691;28;20036;-54
2023/03/15 10:22:51;;;;;;;13.90;6.67;;;7.40;99.90;;;;;;5070520;28;20433;-50
2023/03/15 10:25:28;;;;;;;15.40;7.10;;;8.20;99.90;;;;;;5070196;28;20033;-53
2023/03/15 10:28:01;;;;;;;12.95;5.55;;;9.40;99.90;;;;;;5070373;28;20025;-52
2023/03/15 10:30:32;;;;;;;9.75;4.88;;;10.30;99.90;;;;;;5070610;28;20051;-53
2023/03/15 10:33:17;;;;;;;10.85;4.60;;;10.90;99.90;;;;;;5070652;28;20036;-54
2023/03/15 10:35:43;;;;;;;9.80;4.60;;;10.30;99.90;;;;;;5070392;28;20035;-52
2023/03/15 10:38:20;;;;;;;14.17;5.10;;;9.20;99.90;;;;;;5070365;28;20021;-52
2023/03/15 10:40:54;;;;;;;13.38;5.80;;;8.60;99.90;;;;;;5070416;28;20068;-54
2023/03/15 10:43:38;;;;;;;12.25;6.13;;;9.50;99.90;;;;;;5070252;28;20033;-50
2023/03/15 10:46:20;;;;;;;10.57;4.80;;;10.80;99.90;;;;;;5070270;28;20039;-51
2023/03/15 10:49:05;;;;;;;10.73;3.95;;;11.20;99.90;;;;;;5070548;28;20465;-52
2023/03/15 10:51:36;;;;;;;11.15;4.20;;;11.20;98.90;;;;;;5070451;28;20021;-53
2023/03/15 10:54:18;;;;;;;7.82;3.30;;;11.00;99.70;;;;;;5070179;28;20043;-54
2023/03/15 10:56:55;;;;;;;9.52;3.78;;;11.70;97.10;;;;;;5070272;28;20546;-54
2023/03/15 10:59:23;;;;;;;11.85;4.63;;;12.60;95.50;;;;;;5070351;28;20029;-52
2023/03/15 11:02:06;;;;;;;10.98;4.45;;;12.40;95.20;;;;;;5070453;28;20025;-52
2023/03/15 11:04:32;;;;;;;9.50;4.50;;;12.40;96.90;;;;;;5069966;28;20037;-54
2023/03/15 11:07:01;;;;;;;9.63;3.03;;;13.50;94.00;;;;;;5070489;28;20028;-54
2023/03/15 11:09:40;;;;;;;9.40;3.10;;;13.30;88.20;;;;;;5070338;28;20440;-55
2023/03/15 11:12:08;;;;;;;10.10;4.07;;;12.40;90.90;;;;;;5070293;28;20044;-52
2023/03/15 11:14:42;;;;;;;13.57;4.78;;;11.40;91.20;;;;;;5070118;28;20476;-51
2023/03/15 11:17:22;;;;;;;12.40;4.70;;;10.20;94.50;;;;;;5073848;28;20451;-51
2023/03/15 11:19:58;;;;;;;20.83;6.97;;;9.90;96.10;;;;;;5074065;28;20032;-49
2023/03/15 11:22:24;;;;;;;17.25;4.80;;;9.70;97.70;;;;;;5073982;28;20040;-53
2023/03/15 11:24:53;;;;;;;11.48;4.03;;;9.90;98.20;;;;;;5073627;28;20400;-53
2023/03/15 11:27:22;;;;;;;8.07;2.97;;;10.70;97.00;;;;;;5074284;28;20090;-51
2023/03/15 11:29:54;;;;;;;5.38;1.85;;;11.60;93.60;;;;;;5073777;28;20048;-51
2023/03/15 11:32:23;;;;;;;6.05;2.25;;;11.00;90.70;;;;;;5074060;28;20036;-53
2023/03/15 11:35:04;;;;;;;6.95;2.03;;;10.60;90.60;;;;;;5073842;28;20370;-54
2023/03/15 11:37:38;;;;;;;9.13;1.83;;;10.80;90.70;;;;;;5073684;28;20028;-51
2023/03/15 11:40:17;;;;;;;7.75;2.20;;;10.80;90.40;;;;;;5073756;28;20109;-52
2023/03/15 11:42:53;;;;;;;11.00;2.85;;;11.50;88.90;;;;;;5073953;28;20040;-55
2023/03/15 11:45:27;;;;;;;12.65;3.55;;;12.70;90.10;;;;;;5073341;28;20032;-54
2023/03/15 11:48:02;;;;;;;9.32;3.55;;;13.80;89.90;;;;;;5073391;28;20713;-54
2023/03/15 11:50:28;;;;;;;11.10;3.35;;;14.30;83.80;;;;;;5073640;28;20029;-53
2023/03/15 11:52:54;;;;;;;12.70;3.33;;;14.20;85.20;;;;;;5073631;28;20028;-53
2023/03/15 11:55:25;;;;;;;10.13;3.78;;;14.20;79.40;;;;;;5073646;28;20035;-52
2023/03/15 11:57:52;;;;;;;17.75;5.80;;;14.40;77.10;;;;;;5073425;28;20029;-55
2023/03/15 12:00:43;;;;;;;19.75;5.63;;;14.70;74.00;;;;;;5073409;28;20040;-52
2023/03/15 12:03:34;;;;;;;10.70;3.10;;;15.20;73.40;;;;;;5073302;28;20174;-52
2023/03/15 12:06:05;;;;;;;7.15;1.90;;;15.90;68.30;;;;;;5073310;28;20472;-51
2023/03/15 12:08:42;;;;;;;6.25;2.33;;;16.50;66.40;;;;;;5073193;28;20036;-53
2023/03/15 12:11:20;;;;;;;6.07;2.10;;;15.90;64.70;;;;;;5073310;28;20033;-53
2023/03/15 12:13:57;;;;;;;5.90;1.85;;;14.40;67.90;;;;;;5073008;28;20039;-51
2023/03/15 12:16:40;;;;;;;4.43;1.95;;;14.20;70.00;;;;;;5072975;28;20025;-55
2023/03/15 12:19:26;;;;;;;8.60;2.63;;;14.20;71.10;;;;;;5073206;28;20040;-54
2023/03/15 12:21:57;;;;;;;6.60;1.80;;;15.40;69.30;;;;;;5073018;28;20085;-54
2023/03/15 12:24:28;;;;;;;5.35;1.90;;;15.40;68.40;;;;;;5074345;22;20413;-51
2023/03/15 12:27:13;;;;;;;7.10;1.98;;;15.30;66.80;;;;;;5051570;28;20033;-50
2023/03/15 12:29:39;;;;;;;5.57;1.60;;;14.90;66.10;;;;;;5052705;28;20409;-50
2023/03/15 12:32:12;;;;;;;5.30;1.60;;;15.00;66.00;;;;;;5052904;28;20057;-52
2023/03/15 12:34:50;;;;;;;5.78;1.85;;;14.80;67.30;;;;;;5067740;28;20036;-52
2023/03/15 12:37:22;;;;;;;4.43;1.73;;;15.10;68.00;;;;;;5072808;28;20443;-49
2023/03/15 12:39:51;;;;;;;5.18;1.88;;;15.00;63.10;;;;;;5072807;28;20111;-51
2023/03/15 12:42:32;;;;;;;6.53;1.75;;;15.30;63.00;;;;;;5072720;28;20040;-52
2023/03/15 12:45:16;;;;;;;5.65;1.50;;;15.90;63.60;;;;;;5072300;28;20032;-52
2023/03/15 12:47:51;;;;;;;6.35;1.80;;;15.80;61.10;;;;;;5072541;28;20085;-51
2023/03/15 12:50:52;;;;;;;6.43;1.83;;;14.50;60.20;;;;;;5072699;28;20032;-52
2023/03/15 12:53:37;;;;;;;6.65;1.48;;;13.70;65.90;;;;;;5029940;28;20102;-51
2023/03/15 12:56:28;;;;;;;4.63;1.48;;;13.50;65.00;;;;;;5072579;28;20040;-51
2023/03/15 12:59:02;;;;;;;5.05;1.35;;;13.10;64.20;;;;;;5072164;28;20040;-51
2023/03/15 13:01:28;;;;;;;5.95;2.00;;;12.80;65.80;;;;;;5072302;28;20036;-50
2023/03/15 13:03:56;;;;;;;4.47;1.38;;;12.80;67.60;;;;;;5071924;28;20404;-48
2023/03/15 13:06:34;;;;;;;8.05;1.45;;;12.60;64.10;;;;;;5072126;28;20055;-52
2023/03/15 13:09:18;;;;;;;6.05;1.55;;;12.70;63.20;;;;;;5072110;28;20056;-47